sensor_id;sensor_type;location;lat;lon;timestamp;temperature;humidity
36416;DHT22;22447;44.530;18.620;2023-11-19T00:00:28;0.20;99.90
36416;DHT22;22447;44.530;18.620;2023-11-19T00:02:54;0.20;99.90
36416;DHT22;22447;44.530;18.620;2023-11-19T00:05:19;0.30;99.90
36416;DHT22;22447;44.530;18.620;2023-11-19T00:07:45;0.30;99.90
36416;DHT22;22447;44.530;18.620;2023-11-19T00:10:13;0.30;99.90
36416;DHT22;22447;44.530;18.620;2023-11-19T00:12:44;0.20;99.90
36416;DHT22;22447;44.530;18.620;2023-11-19T00:15:10;0.30;99.90
36416;DHT22;22447;44.530;18.620;2023-11-19T00:17:44;0.20;99.90
36416;DHT22;22447;44.530;18.620;2023-11-19T00:20:10;0.20;99.90
36416;DHT22;22447;44.530;18.620;2023-11-19T00:22:36;0.20;99.90
36416;DHT22;22447;44.530;18.620;2023-11-19T00:25:02;0.10;99.90
36416;DHT22;22447;44.530;18.620;2023-11-19T00:27:29;0.20;99.90
36416;DHT22;22447;44.530;18.620;2023-11-19T00:29:55;0.10;99.90
36416;DHT22;22447;44.530;18.620;2023-11-19T00:32:21;0.20;99.90
36416;DHT22;22447;44.530;18.620;2023-11-19T00:34:46;0.30;99.90
36416;DHT22;22447;44.530;18.620;2023-11-19T00:37:14;0.30;99.90
36416;DHT22;22447;44.530;18.620;2023-11-19T00:39:41;0.30;99.90
36416;DHT22;22447;44.530;18.620;2023-11-19T00:42:07;0.30;99.90
36416;DHT22;22447;44.530;18.620;2023-11-19T00:44:33;0.30;99.90
36416;DHT22;22447;44.530;18.620;2023-11-19T00:46:59;0.30;99.90
36416;DHT22;22447;44.530;18.620;2023-11-19T00:49:28;0.20;99.90
36416;DHT22;22447;44.530;18.620;2023-11-19T00:51:54;0.10;99.90
36416;DHT22;22447;44.530;18.620;2023-11-19T00:54:20;0.00;99.90
36416;DHT22;22447;44.530;18.620;2023-11-19T00:56:46;-0.10;99.90
36416;DHT22;22447;44.530;18.620;2023-11-19T00:59:11;0.00;99.90
36416;DHT22;22447;44.530;18.620;2023-11-19T01:01:37;0.00;99.90
36416;DHT22;22447;44.530;18.620;2023-11-19T01:04:03;0.10;99.90
36416;DHT22;22447;44.530;18.620;2023-11-19T01:06:30;0.10;99.90
36416;DHT22;22447;44.530;18.620;2023-11-19T01:08:56;0.10;99.90
36416;DHT22;22447;44.530;18.620;2023-11-19T01:11:23;0.00;99.90
36416;DHT22;22447;44.530;18.620;2023-11-19T01:13:49;-0.10;99.90
36416;DHT22;22447;44.530;18.620;2023-11-19T01:16:16;-0.20;99.90
36416;DHT22;22447;44.530;18.620;2023-11-19T01:18:42;-0.20;99.90
36416;DHT22;22447;44.530;18.620;2023-11-19T01:21:08;-0.20;99.90
36416;DHT22;22447;44.530;18.620;2023-11-19T01:23:35;-0.30;99.90
36416;DHT22;22447;44.530;18.620;2023-11-19T01:26:01;-0.40;99.90
36416;DHT22;22447;44.530;18.620;2023-11-19T01:28:26;-0.40;99.90
36416;DHT22;22447;44.530;18.620;2023-11-19T01:30:52;-0.40;99.90
36416;DHT22;22447;44.530;18.620;2023-11-19T01:33:19;-0.30;99.90
36416;DHT22;22447;44.530;18.620;2023-11-19T01:35:45;-0.30;99.90
36416;DHT22;22447;44.530;18.620;2023-11-19T01:38:10;-0.30;99.90
36416;DHT22;22447;44.530;18.620;2023-11-19T01:40:37;-0.30;99.90
36416;DHT22;22447;44.530;18.620;2023-11-19T01:43:04;-0.30;99.90
36416;DHT22;22447;44.530;18.620;2023-11-19T01:45:30;-0.20;99.90
36416;DHT22;22447;44.530;18.620;2023-11-19T01:47:57;-0.30;99.90
36416;DHT22;22447;44.530;18.620;2023-11-19T01:50:24;-0.40;99.90
36416;DHT22;22447;44.530;18.620;2023-11-19T01:52:54;-0.40;99.90
36416;DHT22;22447;44.530;18.620;2023-11-19T01:55:20;-0.30;99.90
36416;DHT22;22447;44.530;18.620;2023-11-19T01:57:48;-0.20;99.90
36416;DHT22;22447;44.530;18.620;2023-11-19T02:00:15;-0.20;99.90
36416;DHT22;22447;44.530;18.620;2023-11-19T02:02:43;-0.30;99.90
36416;DHT22;22447;44.530;18.620;2023-11-19T02:05:11;-0.30;99.90
36416;DHT22;22447;44.530;18.620;2023-11-19T02:07:37;-0.20;99.90
36416;DHT22;22447;44.530;18.620;2023-11-19T02:10:03;-0.20;99.90
36416;DHT22;22447;44.530;18.620;2023-11-19T02:12:31;-0.40;99.90
36416;DHT22;22447;44.530;18.620;2023-11-19T02:15:02;-0.40;99.90
36416;DHT22;22447;44.530;18.620;2023-11-19T02:17:31;-0.40;99.90
36416;DHT22;22447;44.530;18.620;2023-11-19T02:19:58;-0.40;99.90
36416;DHT22;22447;44.530;18.620;2023-11-19T02:22:26;-0.40;99.90
36416;DHT22;22447;44.530;18.620;2023-11-19T02:24:59;-0.40;99.90
36416;DHT22;22447;44.530;18.620;2023-11-19T02:30:04;-0.40;99.90
36416;DHT22;22447;44.530;18.620;2023-11-19T02:32:34;-0.40;99.90
36416;DHT22;22447;44.530;18.620;2023-11-19T02:35:01;-0.50;99.90
36416;DHT22;22447;44.530;18.620;2023-11-19T02:37:28;-0.60;99.90
36416;DHT22;22447;44.530;18.620;2023-11-19T02:39:54;-0.50;99.90
36416;DHT22;22447;44.530;18.620;2023-11-19T02:42:19;-0.50;99.90
36416;DHT22;22447;44.530;18.620;2023-11-19T02:44:45;-0.50;99.90
36416;DHT22;22447;44.530;18.620;2023-11-19T02:47:11;-0.40;99.90
36416;DHT22;22447;44.530;18.620;2023-11-19T02:49:37;-0.40;99.90
36416;DHT22;22447;44.530;18.620;2023-11-19T02:52:04;-0.40;99.90
36416;DHT22;22447;44.530;18.620;2023-11-19T02:54:33;-0.50;99.90
36416;DHT22;22447;44.530;18.620;2023-11-19T02:57:01;-0.50;99.90
36416;DHT22;22447;44.530;18.620;2023-11-19T02:59:29;-0.60;99.90
36416;DHT22;22447;44.530;18.620;2023-11-19T03:02:05;-0.50;99.90
36416;DHT22;22447;44.530;18.620;2023-11-19T03:04:33;-0.40;99.90
36416;DHT22;22447;44.530;18.620;2023-11-19T03:06:59;-0.30;99.90
36416;DHT22;22447;44.530;18.620;2023-11-19T03:09:25;-0.30;99.90
36416;DHT22;22447;44.530;18.620;2023-11-19T03:11:51;-0.30;99.90
36416;DHT22;22447;44.530;18.620;2023-11-19T03:14:16;-0.40;99.90
36416;DHT22;22447;44.530;18.620;2023-11-19T03:16:45;-0.50;99.90
36416;DHT22;22447;44.530;18.620;2023-11-19T03:19:14;-0.50;99.90
36416;DHT22;22447;44.530;18.620;2023-11-19T03:21:40;-0.40;99.90
36416;DHT22;22447;44.530;18.620;2023-11-19T03:24:06;-0.40;99.90
36416;DHT22;22447;44.530;18.620;2023-11-19T03:26:34;-0.50;99.90
36416;DHT22;22447;44.530;18.620;2023-11-19T03:28:59;-0.50;99.90
36416;DHT22;22447;44.530;18.620;2023-11-19T03:31:26;-0.50;99.90
36416;DHT22;22447;44.530;18.620;2023-11-19T03:33:52;-0.40;99.90
36416;DHT22;22447;44.530;18.620;2023-11-19T03:36:17;-0.50;99.90
36416;DHT22;22447;44.530;18.620;2023-11-19T03:38:43;-0.50;99.90
36416;DHT22;22447;44.530;18.620;2023-11-19T03:41:13;-0.50;99.90
36416;DHT22;22447;44.530;18.620;2023-11-19T03:43:40;-0.50;99.90
36416;DHT22;22447;44.530;18.620;2023-11-19T03:46:17;-0.50;99.90
36416;DHT22;22447;44.530;18.620;2023-11-19T03:48:43;-0.50;99.90
36416;DHT22;22447;44.530;18.620;2023-11-19T03:51:09;-0.60;99.90
36416;DHT22;22447;44.530;18.620;2023-11-19T03:53:35;-0.70;99.90
36416;DHT22;22447;44.530;18.620;2023-11-19T03:56:01;-0.70;99.90
36416;DHT22;22447;44.530;18.620;2023-11-19T03:58:27;-0.80;99.90
36416;DHT22;22447;44.530;18.620;2023-11-19T04:00:52;-0.70;99.90
36416;DHT22;22447;44.530;18.620;2023-11-19T04:03:18;-0.60;99.90
36416;DHT22;22447;44.530;18.620;2023-11-19T04:05:45;-0.60;99.90
36416;DHT22;22447;44.530;18.620;2023-11-19T04:08:11;-0.60;99.90
36416;DHT22;22447;44.530;18.620;2023-11-19T04:10:37;-0.60;99.90
36416;DHT22;22447;44.530;18.620;2023-11-19T04:13:02;-0.70;99.90
36416;DHT22;22447;44.530;18.620;2023-11-19T04:15:28;-0.70;99.90
36416;DHT22;22447;44.530;18.620;2023-11-19T04:17:54;-0.70;99.90
36416;DHT22;22447;44.530;18.620;2023-11-19T04:20:21;-0.70;99.90
36416;DHT22;22447;44.530;18.620;2023-11-19T04:22:47;-0.60;99.90
36416;DHT22;22447;44.530;18.620;2023-11-19T04:25:12;-0.50;99.90
36416;DHT22;22447;44.530;18.620;2023-11-19T04:27:39;-0.50;99.90
36416;DHT22;22447;44.530;18.620;2023-11-19T04:30:08;-0.50;99.90
36416;DHT22;22447;44.530;18.620;2023-11-19T04:32:36;-0.50;99.90
36416;DHT22;22447;44.530;18.620;2023-11-19T04:35:03;-0.60;99.90
36416;DHT22;22447;44.530;18.620;2023-11-19T04:37:29;-0.50;99.90
36416;DHT22;22447;44.530;18.620;2023-11-19T04:39:55;-0.40;99.90
36416;DHT22;22447;44.530;18.620;2023-11-19T04:42:24;-0.50;99.90
36416;DHT22;22447;44.530;18.620;2023-11-19T04:44:50;-0.50;99.90
36416;DHT22;22447;44.530;18.620;2023-11-19T04:47:15;-0.50;99.90
36416;DHT22;22447;44.530;18.620;2023-11-19T04:49:41;-0.50;99.90
36416;DHT22;22447;44.530;18.620;2023-11-19T04:52:10;-0.60;99.90
36416;DHT22;22447;44.530;18.620;2023-11-19T04:54:44;-0.60;99.90
36416;DHT22;22447;44.530;18.620;2023-11-19T04:57:10;-0.50;99.90
36416;DHT22;22447;44.530;18.620;2023-11-19T04:59:39;-0.50;99.90
36416;DHT22;22447;44.530;18.620;2023-11-19T05:02:05;-0.50;99.90
36416;DHT22;22447;44.530;18.620;2023-11-19T05:04:31;-0.40;99.90
36416;DHT22;22447;44.530;18.620;2023-11-19T05:06:57;-0.40;99.90
36416;DHT22;22447;44.530;18.620;2023-11-19T05:09:23;-0.40;99.90
36416;DHT22;22447;44.530;18.620;2023-11-19T05:11:49;-0.30;99.90
36416;DHT22;22447;44.530;18.620;2023-11-19T05:14:15;-0.40;99.90
36416;DHT22;22447;44.530;18.620;2023-11-19T05:16:41;-0.40;99.90
36416;DHT22;22447;44.530;18.620;2023-11-19T05:19:08;-0.50;99.90
36416;DHT22;22447;44.530;18.620;2023-11-19T05:21:35;-0.50;99.90
36416;DHT22;22447;44.530;18.620;2023-11-19T05:24:02;-0.50;99.90
36416;DHT22;22447;44.530;18.620;2023-11-19T05:26:30;-0.60;99.90
36416;DHT22;22447;44.530;18.620;2023-11-19T05:28:56;-0.60;99.90
36416;DHT22;22447;44.530;18.620;2023-11-19T05:31:22;-0.60;99.90
36416;DHT22;22447;44.530;18.620;2023-11-19T05:33:48;-0.60;99.90
36416;DHT22;22447;44.530;18.620;2023-11-19T05:36:13;-0.60;99.90
36416;DHT22;22447;44.530;18.620;2023-11-19T05:38:39;-0.60;99.90
36416;DHT22;22447;44.530;18.620;2023-11-19T05:41:06;-0.70;99.90
36416;DHT22;22447;44.530;18.620;2023-11-19T05:43:32;-0.70;99.90
36416;DHT22;22447;44.530;18.620;2023-11-19T05:45:58;-0.70;99.90
36416;DHT22;22447;44.530;18.620;2023-11-19T05:48:26;-0.70;99.90
36416;DHT22;22447;44.530;18.620;2023-11-19T05:50:52;-0.80;99.90
36416;DHT22;22447;44.530;18.620;2023-11-19T05:53:18;-0.90;99.90
36416;DHT22;22447;44.530;18.620;2023-11-19T05:55:44;-0.80;99.90
36416;DHT22;22447;44.530;18.620;2023-11-19T05:58:14;-0.70;99.90
36416;DHT22;22447;44.530;18.620;2023-11-19T06:00:40;-0.70;99.90
36416;DHT22;22447;44.530;18.620;2023-11-19T06:03:07;-0.60;99.90
36416;DHT22;22447;44.530;18.620;2023-11-19T06:05:33;-0.50;99.90
36416;DHT22;22447;44.530;18.620;2023-11-19T06:07:59;-0.40;99.90
36416;DHT22;22447;44.530;18.620;2023-11-19T06:10:25;-0.40;99.90
36416;DHT22;22447;44.530;18.620;2023-11-19T06:12:58;-0.20;99.90
36416;DHT22;22447;44.530;18.620;2023-11-19T06:15:26;-0.20;99.90
36416;DHT22;22447;44.530;18.620;2023-11-19T06:17:53;-0.20;99.90
36416;DHT22;22447;44.530;18.620;2023-11-19T06:20:18;0.10;99.90
36416;DHT22;22447;44.530;18.620;2023-11-19T06:22:45;0.20;99.90
36416;DHT22;22447;44.530;18.620;2023-11-19T06:25:12;0.20;99.90
36416;DHT22;22447;44.530;18.620;2023-11-19T06:27:41;0.40;99.90
36416;DHT22;22447;44.530;18.620;2023-11-19T06:30:07;1.20;99.90
36416;DHT22;22447;44.530;18.620;2023-11-19T06:32:33;2.10;99.90
36416;DHT22;22447;44.530;18.620;2023-11-19T06:34:59;2.90;99.90
36416;DHT22;22447;44.530;18.620;2023-11-19T06:37:25;3.60;99.90
36416;DHT22;22447;44.530;18.620;2023-11-19T06:39:52;3.70;99.90
36416;DHT22;22447;44.530;18.620;2023-11-19T06:42:18;4.20;99.90
36416;DHT22;22447;44.530;18.620;2023-11-19T06:44:44;5.50;99.90
36416;DHT22;22447;44.530;18.620;2023-11-19T06:47:10;5.80;91.50
36416;DHT22;22447;44.530;18.620;2023-11-19T06:49:36;5.30;92.20
36416;DHT22;22447;44.530;18.620;2023-11-19T06:52:03;6.10;90.50
36416;DHT22;22447;44.530;18.620;2023-11-19T06:54:30;6.00;86.20
36416;DHT22;22447;44.530;18.620;2023-11-19T06:56:56;6.00;89.80
36416;DHT22;22447;44.530;18.620;2023-11-19T06:59:23;6.30;88.40
36416;DHT22;22447;44.530;18.620;2023-11-19T07:01:49;5.40;84.60
36416;DHT22;22447;44.530;18.620;2023-11-19T07:04:15;4.90;88.40
36416;DHT22;22447;44.530;18.620;2023-11-19T07:06:40;4.30;91.10
36416;DHT22;22447;44.530;18.620;2023-11-19T07:09:07;4.20;92.10
36416;DHT22;22447;44.530;18.620;2023-11-19T07:11:37;4.10;92.70
36416;DHT22;22447;44.530;18.620;2023-11-19T07:14:04;3.20;93.10
36416;DHT22;22447;44.530;18.620;2023-11-19T07:16:32;2.70;94.80
36416;DHT22;22447;44.530;18.620;2023-11-19T07:19:00;2.80;96.20
36416;DHT22;22447;44.530;18.620;2023-11-19T07:21:27;3.00;96.30
36416;DHT22;22447;44.530;18.620;2023-11-19T07:23:56;3.00;96.80
36416;DHT22;22447;44.530;18.620;2023-11-19T07:26:22;3.20;97.80
36416;DHT22;22447;44.530;18.620;2023-11-19T07:28:49;3.30;97.20
36416;DHT22;22447;44.530;18.620;2023-11-19T07:31:15;3.10;97.30
36416;DHT22;22447;44.530;18.620;2023-11-19T07:33:41;3.00;96.50
36416;DHT22;22447;44.530;18.620;2023-11-19T07:36:10;3.00;97.30
36416;DHT22;22447;44.530;18.620;2023-11-19T07:38:36;3.20;97.60
36416;DHT22;22447;44.530;18.620;2023-11-19T07:41:02;3.30;97.50
36416;DHT22;22447;44.530;18.620;2023-11-19T07:43:28;3.20;97.80
36416;DHT22;22447;44.530;18.620;2023-11-19T07:45:54;3.30;97.50
36416;DHT22;22447;44.530;18.620;2023-11-19T07:48:20;3.40;97.80
36416;DHT22;22447;44.530;18.620;2023-11-19T07:50:52;3.60;97.30
36416;DHT22;22447;44.530;18.620;2023-11-19T07:53:19;3.60;97.20
36416;DHT22;22447;44.530;18.620;2023-11-19T07:55:45;3.60;98.10
36416;DHT22;22447;44.530;18.620;2023-11-19T07:58:11;3.60;97.50
36416;DHT22;22447;44.530;18.620;2023-11-19T08:00:38;3.60;96.80
36416;DHT22;22447;44.530;18.620;2023-11-19T08:03:04;3.50;97.60
36416;DHT22;22447;44.530;18.620;2023-11-19T08:05:33;3.70;98.20
36416;DHT22;22447;44.530;18.620;2023-11-19T08:07:59;3.80;97.50
36416;DHT22;22447;44.530;18.620;2023-11-19T08:10:25;4.10;97.70
36416;DHT22;22447;44.530;18.620;2023-11-19T08:12:50;4.30;97.20
36416;DHT22;22447;44.530;18.620;2023-11-19T08:15:16;4.60;96.80
36416;DHT22;22447;44.530;18.620;2023-11-19T08:17:42;4.40;95.50
36416;DHT22;22447;44.530;18.620;2023-11-19T08:20:09;4.60;95.60
36416;DHT22;22447;44.530;18.620;2023-11-19T08:22:39;4.80;95.50
36416;DHT22;22447;44.530;18.620;2023-11-19T08:25:05;5.10;95.40
36416;DHT22;22447;44.530;18.620;2023-11-19T08:27:32;5.10;94.70
36416;DHT22;22447;44.530;18.620;2023-11-19T08:29:58;5.20;95.00
36416;DHT22;22447;44.530;18.620;2023-11-19T08:32:25;5.40;95.00
36416;DHT22;22447;44.530;18.620;2023-11-19T08:34:51;5.60;94.20
36416;DHT22;22447;44.530;18.620;2023-11-19T08:37:17;5.60;93.70
36416;DHT22;22447;44.530;18.620;2023-11-19T08:39:52;5.40;93.60
36416;DHT22;22447;44.530;18.620;2023-11-19T08:42:19;5.40;93.80
36416;DHT22;22447;44.530;18.620;2023-11-19T08:44:49;5.70;93.40
36416;DHT22;22447;44.530;18.620;2023-11-19T08:47:16;6.00;92.60
36416;DHT22;22447;44.530;18.620;2023-11-19T08:49:44;6.00;92.20
36416;DHT22;22447;44.530;18.620;2023-11-19T08:52:10;5.80;92.20
36416;DHT22;22447;44.530;18.620;2023-11-19T08:54:42;6.00;92.50
36416;DHT22;22447;44.530;18.620;2023-11-19T08:57:08;6.00;92.30
36416;DHT22;22447;44.530;18.620;2023-11-19T08:59:34;6.00;92.00
36416;DHT22;22447;44.530;18.620;2023-11-19T09:02:00;6.00;92.70
36416;DHT22;22447;44.530;18.620;2023-11-19T09:04:27;6.10;93.00
36416;DHT22;22447;44.530;18.620;2023-11-19T09:06:53;6.10;92.90
36416;DHT22;22447;44.530;18.620;2023-11-19T09:09:19;6.00;93.10
36416;DHT22;22447;44.530;18.620;2023-11-19T09:11:45;5.70;93.00
36416;DHT22;22447;44.530;18.620;2023-11-19T09:14:10;5.70;94.10
36416;DHT22;22447;44.530;18.620;2023-11-19T09:16:36;5.90;94.00
36416;DHT22;22447;44.530;18.620;2023-11-19T09:19:02;6.00;93.80
36416;DHT22;22447;44.530;18.620;2023-11-19T09:21:28;6.00;93.80
36416;DHT22;22447;44.530;18.620;2023-11-19T09:23:57;6.10;93.80
36416;DHT22;22447;44.530;18.620;2023-11-19T09:26:23;6.20;93.40
36416;DHT22;22447;44.530;18.620;2023-11-19T09:28:49;6.00;93.70
36416;DHT22;22447;44.530;18.620;2023-11-19T09:31:17;6.20;93.60
36416;DHT22;22447;44.530;18.620;2023-11-19T09:33:43;6.40;93.60
36416;DHT22;22447;44.530;18.620;2023-11-19T09:36:11;6.50;92.70
36416;DHT22;22447;44.530;18.620;2023-11-19T09:38:39;6.70;92.60
36416;DHT22;22447;44.530;18.620;2023-11-19T09:41:06;6.90;93.10
36416;DHT22;22447;44.530;18.620;2023-11-19T09:43:36;7.20;92.40
36416;DHT22;22447;44.530;18.620;2023-11-19T09:46:06;7.40;91.90
36416;DHT22;22447;44.530;18.620;2023-11-19T09:48:35;8.40;92.30
36416;DHT22;22447;44.530;18.620;2023-11-19T09:51:02;8.80;89.40
36416;DHT22;22447;44.530;18.620;2023-11-19T09:53:29;9.30;84.30
36416;DHT22;22447;44.530;18.620;2023-11-19T09:55:56;9.90;84.40
36416;DHT22;22447;44.530;18.620;2023-11-19T09:58:22;10.20;79.60
36416;DHT22;22447;44.530;18.620;2023-11-19T10:00:49;10.50;77.60
36416;DHT22;22447;44.530;18.620;2023-11-19T10:03:15;11.40;72.20
36416;DHT22;22447;44.530;18.620;2023-11-19T10:05:41;11.70;68.20
36416;DHT22;22447;44.530;18.620;2023-11-19T10:08:07;12.60;68.70
36416;DHT22;22447;44.530;18.620;2023-11-19T10:10:37;13.00;61.10
36416;DHT22;22447;44.530;18.620;2023-11-19T10:13:03;13.20;59.00
36416;DHT22;22447;44.530;18.620;2023-11-19T10:15:33;13.70;52.50
36416;DHT22;22447;44.530;18.620;2023-11-19T10:18:01;14.50;51.20
36416;DHT22;22447;44.530;18.620;2023-11-19T10:20:27;14.10;47.60
36416;DHT22;22447;44.530;18.620;2023-11-19T10:22:54;14.20;47.60
36416;DHT22;22447;44.530;18.620;2023-11-19T10:25:28;14.40;48.70
36416;DHT22;22447;44.530;18.620;2023-11-19T10:27:55;14.80;44.60
36416;DHT22;22447;44.530;18.620;2023-11-19T10:30:25;15.00;44.10
36416;DHT22;22447;44.530;18.620;2023-11-19T10:33:10;15.20;43.40
36416;DHT22;22447;44.530;18.620;2023-11-19T10:36:10;15.10;41.70
36416;DHT22;22447;44.530;18.620;2023-11-19T10:38:38;16.20;40.90
36416;DHT22;22447;44.530;18.620;2023-11-19T10:41:04;16.60;38.40
36416;DHT22;22447;44.530;18.620;2023-11-19T10:43:31;17.20;36.80
36416;DHT22;22447;44.530;18.620;2023-11-19T10:46:10;15.80;38.40
36416;DHT22;22447;44.530;18.620;2023-11-19T10:48:36;16.00;39.90
36416;DHT22;22447;44.530;18.620;2023-11-19T10:51:05;15.70;39.00
36416;DHT22;22447;44.530;18.620;2023-11-19T10:53:43;15.90;37.70
36416;DHT22;22447;44.530;18.620;2023-11-19T10:56:11;15.70;39.70
36416;DHT22;22447;44.530;18.620;2023-11-19T10:58:37;15.80;38.10
36416;DHT22;22447;44.530;18.620;2023-11-19T11:01:16;15.30;37.90
36416;DHT22;22447;44.530;18.620;2023-11-19T11:03:44;15.10;39.10
36416;DHT22;22447;44.530;18.620;2023-11-19T11:06:13;15.40;39.60
36416;DHT22;22447;44.530;18.620;2023-11-19T11:08:39;14.80;40.60
36416;DHT22;22447;44.530;18.620;2023-11-19T11:11:07;15.00;40.00
36416;DHT22;22447;44.530;18.620;2023-11-19T11:13:33;15.50;38.00
36416;DHT22;22447;44.530;18.620;2023-11-19T11:16:08;15.60;36.10
36416;DHT22;22447;44.530;18.620;2023-11-19T11:18:34;16.40;35.10
36416;DHT22;22447;44.530;18.620;2023-11-19T11:21:06;16.50;33.80
36416;DHT22;22447;44.530;18.620;2023-11-19T11:32:21;17.40;30.00
36416;DHT22;22447;44.530;18.620;2023-11-19T11:34:57;18.50;30.00
36416;DHT22;22447;44.530;18.620;2023-11-19T11:37:34;19.10;30.30
36416;DHT22;22447;44.530;18.620;2023-11-19T11:40:03;18.90;29.00
36416;DHT22;22447;44.530;18.620;2023-11-19T11:42:36;17.30;29.40
36416;DHT22;22447;44.530;18.620;2023-11-19T11:45:07;17.80;28.40
36416;DHT22;22447;44.530;18.620;2023-11-19T11:50:15;19.00;26.20
36416;DHT22;22447;44.530;18.620;2023-11-19T11:57:52;17.80;27.90
36416;DHT22;22447;44.530;18.620;2023-11-19T12:00:37;18.30;26.60
36416;DHT22;22447;44.530;18.620;2023-11-19T12:03:05;19.30;25.80
36416;DHT22;22447;44.530;18.620;2023-11-19T12:05:33;19.70;24.90
36416;DHT22;22447;44.530;18.620;2023-11-19T12:08:03;19.50;24.70
36416;DHT22;22447;44.530;18.620;2023-11-19T12:10:34;19.80;22.10
36416;DHT22;22447;44.530;18.620;2023-11-19T12:13:06;19.40;22.70
36416;DHT22;22447;44.530;18.620;2023-11-19T12:18:28;18.70;23.50
36416;DHT22;22447;44.530;18.620;2023-11-19T12:20:55;18.70;23.70
36416;DHT22;22447;44.530;18.620;2023-11-19T12:23:26;17.90;24.00
36416;DHT22;22447;44.530;18.620;2023-11-19T12:25:52;18.40;24.80
36416;DHT22;22447;44.530;18.620;2023-11-19T12:28:18;18.00;24.60
36416;DHT22;22447;44.530;18.620;2023-11-19T12:30:45;17.30;23.60
36416;DHT22;22447;44.530;18.620;2023-11-19T12:33:12;16.70;25.20
36416;DHT22;22447;44.530;18.620;2023-11-19T12:35:43;15.50;27.90
36416;DHT22;22447;44.530;18.620;2023-11-19T12:40:44;14.90;28.70
36416;DHT22;22447;44.530;18.620;2023-11-19T12:43:10;14.30;30.00
36416;DHT22;22447;44.530;18.620;2023-11-19T12:45:36;14.50;30.10
36416;DHT22;22447;44.530;18.620;2023-11-19T12:48:06;14.40;30.40
36416;DHT22;22447;44.530;18.620;2023-11-19T12:50:55;14.00;30.90
36416;DHT22;22447;44.530;18.620;2023-11-19T12:53:22;13.50;32.60
36416;DHT22;22447;44.530;18.620;2023-11-19T12:55:49;13.70;33.70
36416;DHT22;22447;44.530;18.620;2023-11-19T12:58:35;13.50;35.00
36416;DHT22;22447;44.530;18.620;2023-11-19T13:01:06;13.40;34.20
36416;DHT22;22447;44.530;18.620;2023-11-19T13:03:34;13.40;35.90
36416;DHT22;22447;44.530;18.620;2023-11-19T13:06:11;13.70;34.90
36416;DHT22;22447;44.530;18.620;2023-11-19T13:11:06;14.00;34.60
36416;DHT22;22447;44.530;18.620;2023-11-19T13:14:00;14.20;35.10
36416;DHT22;22447;44.530;18.620;2023-11-19T13:16:27;14.10;36.10
36416;DHT22;22447;44.530;18.620;2023-11-19T13:18:53;14.40;35.40
36416;DHT22;22447;44.530;18.620;2023-11-19T13:21:19;14.60;36.70
36416;DHT22;22447;44.530;18.620;2023-11-19T13:23:45;14.80;36.40
36416;DHT22;22447;44.530;18.620;2023-11-19T13:26:12;14.70;36.10
36416;DHT22;22447;44.530;18.620;2023-11-19T13:28:38;14.80;37.80
36416;DHT22;22447;44.530;18.620;2023-11-19T13:31:05;15.00;37.60
36416;DHT22;22447;44.530;18.620;2023-11-19T13:33:31;14.60;37.10
36416;DHT22;22447;44.530;18.620;2023-11-19T13:35:57;14.20;37.90
36416;DHT22;22447;44.530;18.620;2023-11-19T13:38:23;14.50;39.10
36416;DHT22;22447;44.530;18.620;2023-11-19T13:40:50;14.50;38.80
36416;DHT22;22447;44.530;18.620;2023-11-19T13:43:17;14.30;39.60
36416;DHT22;22447;44.530;18.620;2023-11-19T13:45:43;14.20;42.40
36416;DHT22;22447;44.530;18.620;2023-11-19T13:48:08;14.10;42.60
36416;DHT22;22447;44.530;18.620;2023-11-19T13:50:35;14.20;42.60
36416;DHT22;22447;44.530;18.620;2023-11-19T13:53:01;14.20;41.80
36416;DHT22;22447;44.530;18.620;2023-11-19T13:55:27;14.10;43.50
36416;DHT22;22447;44.530;18.620;2023-11-19T13:57:56;14.20;44.60
36416;DHT22;22447;44.530;18.620;2023-11-19T14:00:22;14.10;43.80
36416;DHT22;22447;44.530;18.620;2023-11-19T14:02:49;13.70;44.00
36416;DHT22;22447;44.530;18.620;2023-11-19T14:05:16;13.40;45.80
36416;DHT22;22447;44.530;18.620;2023-11-19T14:07:45;13.10;48.60
36416;DHT22;22447;44.530;18.620;2023-11-19T14:10:14;13.50;46.30
36416;DHT22;22447;44.530;18.620;2023-11-19T14:12:41;13.90;47.10
36416;DHT22;22447;44.530;18.620;2023-11-19T14:15:08;14.00;47.60
36416;DHT22;22447;44.530;18.620;2023-11-19T14:17:36;14.10;46.20
36416;DHT22;22447;44.530;18.620;2023-11-19T14:20:02;13.60;46.10
36416;DHT22;22447;44.530;18.620;2023-11-19T14:22:39;14.10;45.70
36416;DHT22;22447;44.530;18.620;2023-11-19T14:25:06;14.10;46.30
36416;DHT22;22447;44.530;18.620;2023-11-19T14:27:40;14.00;47.40
36416;DHT22;22447;44.530;18.620;2023-11-19T14:30:09;13.80;48.70
36416;DHT22;22447;44.530;18.620;2023-11-19T14:32:42;13.30;49.20
36416;DHT22;22447;44.530;18.620;2023-11-19T14:35:10;12.90;50.40
36416;DHT22;22447;44.530;18.620;2023-11-19T14:37:36;12.70;51.20
36416;DHT22;22447;44.530;18.620;2023-11-19T14:40:02;12.40;52.10
36416;DHT22;22447;44.530;18.620;2023-11-19T14:42:30;12.20;53.00
36416;DHT22;22447;44.530;18.620;2023-11-19T14:44:57;11.80;53.90
36416;DHT22;22447;44.530;18.620;2023-11-19T14:47:23;11.40;55.10
36416;DHT22;22447;44.530;18.620;2023-11-19T14:49:49;11.00;56.10
36416;DHT22;22447;44.530;18.620;2023-11-19T14:52:16;10.80;57.20
36416;DHT22;22447;44.530;18.620;2023-11-19T14:54:42;10.60;58.40
36416;DHT22;22447;44.530;18.620;2023-11-19T14:57:08;10.50;59.50
36416;DHT22;22447;44.530;18.620;2023-11-19T14:59:35;10.60;59.70
36416;DHT22;22447;44.530;18.620;2023-11-19T15:02:01;10.50;59.80
36416;DHT22;22447;44.530;18.620;2023-11-19T15:04:28;10.30;61.30
36416;DHT22;22447;44.530;18.620;2023-11-19T15:06:59;10.10;62.10
36416;DHT22;22447;44.530;18.620;2023-11-19T15:09:25;9.90;63.30
36416;DHT22;22447;44.530;18.620;2023-11-19T15:11:54;9.60;64.70
36416;DHT22;22447;44.530;18.620;2023-11-19T15:14:20;9.40;64.70
36416;DHT22;22447;44.530;18.620;2023-11-19T15:16:46;9.10;67.20
36416;DHT22;22447;44.530;18.620;2023-11-19T15:19:13;8.80;68.40
36416;DHT22;22447;44.530;18.620;2023-11-19T15:21:40;8.40;70.20
36416;DHT22;22447;44.530;18.620;2023-11-19T15:24:08;8.30;72.00
36416;DHT22;22447;44.530;18.620;2023-11-19T15:26:35;8.30;73.10
36416;DHT22;22447;44.530;18.620;2023-11-19T15:29:02;8.00;75.30
36416;DHT22;22447;44.530;18.620;2023-11-19T15:31:28;7.90;76.50
36416;DHT22;22447;44.530;18.620;2023-11-19T15:33:55;7.60;78.00
36416;DHT22;22447;44.530;18.620;2023-11-19T15:36:21;7.50;80.00
36416;DHT22;22447;44.530;18.620;2023-11-19T15:38:47;7.60;81.20
36416;DHT22;22447;44.530;18.620;2023-11-19T15:41:14;7.40;82.40
36416;DHT22;22447;44.530;18.620;2023-11-19T15:43:40;7.20;83.90
36416;DHT22;22447;44.530;18.620;2023-11-19T15:46:09;7.10;85.60
36416;DHT22;22447;44.530;18.620;2023-11-19T15:48:37;7.00;86.90
36416;DHT22;22447;44.530;18.620;2023-11-19T15:51:03;7.00;87.60